sensor_id;sensor_type;location;lat;lon;timestamp;P1;durP1;ratioP1;P2;durP2;ratioP2
4078;SDS011;2054;47.858;11.156;2023-07-29T02:45:43;5.80;;;3.53;;
4078;SDS011;2054;47.858;11.156;2023-07-29T02:48:11;4.10;;;3.35;;
4078;SDS011;2054;47.858;11.156;2023-07-29T02:50:38;5.15;;;3.13;;
4078;SDS011;2054;47.858;11.156;2023-07-29T02:53:07;5.40;;;3.50;;
4078;SDS011;2054;47.858;11.156;2023-07-29T02:55:34;5.43;;;3.30;;
4078;SDS011;2054;47.858;11.156;2023-07-29T02:58:01;6.57;;;3.17;;
4078;SDS011;2054;47.858;11.156;2023-07-29T03:00:30;4.50;;;3.25;;
4078;SDS011;2054;47.858;11.156;2023-07-29T03:02:59;5.45;;;3.15;;
4078;SDS011;2054;47.858;11.156;2023-07-29T03:05:27;5.72;;;3.95;;
4078;SDS011;2054;47.858;11.156;2023-07-29T03:07:54;5.43;;;3.75;;
4078;SDS011;2054;47.858;11.156;2023-07-29T03:10:21;6.35;;;3.20;;
4078;SDS011;2054;47.858;11.156;2023-07-29T03:12:49;5.18;;;3.20;;
4078;SDS011;2054;47.858;11.156;2023-07-29T03:15:16;3.67;;;3.08;;
4078;SDS011;2054;47.858;11.156;2023-07-29T03:17:43;3.80;;;2.92;;
4078;SDS011;2054;47.858;11.156;2023-07-29T03:20:11;6.35;;;3.53;;
4078;SDS011;2054;47.858;11.156;2023-07-29T03:22:38;6.00;;;3.63;;
4078;SDS011;2054;47.858;11.156;2023-07-29T03:25:05;15.68;;;4.65;;
4078;SDS011;2054;47.858;11.156;2023-07-29T03:27:32;13.38;;;4.68;;
4078;SDS011;2054;47.858;11.156;2023-07-29T03:30:02;7.55;;;3.80;;
4078;SDS011;2054;47.858;11.156;2023-07-29T03:32:31;5.53;;;3.70;;
4078;SDS011;2054;47.858;11.156;2023-07-29T03:34:57;4.47;;;3.63;;
4078;SDS011;2054;47.858;11.156;2023-07-29T03:37:26;5.40;;;3.55;;
4078;SDS011;2054;47.858;11.156;2023-07-29T03:39:53;4.97;;;3.42;;
4078;SDS011;2054;47.858;11.156;2023-07-29T03:42:23;4.78;;;3.53;;
4078;SDS011;2054;47.858;11.156;2023-07-29T03:44:50;5.15;;;3.65;;
4078;SDS011;2054;47.858;11.156;2023-07-29T03:47:16;3.97;;;3.45;;
4078;SDS011;2054;47.858;11.156;2023-07-29T03:49:43;6.57;;;4.00;;
4078;SDS011;2054;47.858;11.156;2023-07-29T03:52:10;5.47;;;3.55;;
4078;SDS011;2054;47.858;11.156;2023-07-29T03:54:39;3.90;;;3.15;;
4078;SDS011;2054;47.858;11.156;2023-07-29T03:57:06;5.47;;;3.55;;
4078;SDS011;2054;47.858;11.156;2023-07-29T03:59:33;5.90;;;3.85;;
4078;SDS011;2054;47.858;11.156;2023-07-29T04:01:59;4.00;;;3.20;;
4078;SDS011;2054;47.858;11.156;2023-07-29T04:04:26;6.72;;;4.00;;
4078;SDS011;2054;47.858;11.156;2023-07-29T04:06:53;5.00;;;3.72;;
4078;SDS011;2054;47.858;11.156;2023-07-29T04:09:20;3.92;;;3.53;;
4078;SDS011;2054;47.858;11.156;2023-07-29T04:11:48;5.07;;;3.67;;
4078;SDS011;2054;47.858;11.156;2023-07-29T04:14:15;5.03;;;3.90;;
4078;SDS011;2054;47.858;11.156;2023-07-29T04:16:42;4.50;;;3.33;;
4078;SDS011;2054;47.858;11.156;2023-07-29T04:19:10;5.25;;;4.03;;
4078;SDS011;2054;47.858;11.156;2023-07-29T04:21:37;4.10;;;3.53;;
4078;SDS011;2054;47.858;11.156;2023-07-29T04:24:04;4.38;;;3.33;;
4078;SDS011;2054;47.858;11.156;2023-07-29T04:26:31;5.57;;;3.08;;
4078;SDS011;2054;47.858;11.156;2023-07-29T04:28:59;5.28;;;3.47;;
4078;SDS011;2054;47.858;11.156;2023-07-29T04:31:26;4.72;;;3.45;;
4078;SDS011;2054;47.858;11.156;2023-07-29T04:33:53;5.03;;;4.07;;
4078;SDS011;2054;47.858;11.156;2023-07-29T04:36:20;5.45;;;3.67;;
4078;SDS011;2054;47.858;11.156;2023-07-29T04:38:47;4.65;;;3.85;;
4078;SDS011;2054;47.858;11.156;2023-07-29T04:41:14;5.60;;;4.05;;
4078;SDS011;2054;47.858;11.156;2023-07-29T04:43:41;5.60;;;3.03;;
4078;SDS011;2054;47.858;11.156;2023-07-29T04:46:10;5.50;;;3.22;;
4078;SDS011;2054;47.858;11.156;2023-07-29T04:48:38;3.78;;;3.10;;
4078;SDS011;2054;47.858;11.156;2023-07-29T04:51:06;3.78;;;3.10;;
4078;SDS011;2054;47.858;11.156;2023-07-29T04:53:33;5.68;;;3.15;;
4078;SDS011;2054;47.858;11.156;2023-07-29T04:56:01;5.03;;;3.40;;
4078;SDS011;2054;47.858;11.156;2023-07-29T04:58:28;4.22;;;3.28;;
4078;SDS011;2054;47.858;11.156;2023-07-29T05:00:55;4.93;;;3.00;;
4078;SDS011;2054;47.858;11.156;2023-07-29T05:03:23;4.53;;;3.08;;
4078;SDS011;2054;47.858;11.156;2023-07-29T05:05:51;4.80;;;3.05;;
4078;SDS011;2054;47.858;11.156;2023-07-29T05:08:20;4.97;;;2.83;;
4078;SDS011;2054;47.858;11.156;2023-07-29T05:10:48;4.60;;;2.97;;
4078;SDS011;2054;47.858;11.156;2023-07-29T05:13:16;4.32;;;2.60;;
4078;SDS011;2054;47.858;11.156;2023-07-29T05:15:44;2.60;;;2.40;;
4078;SDS011;2054;47.858;11.156;2023-07-29T05:18:11;2.97;;;2.55;;
4078;SDS011;2054;47.858;11.156;2023-07-29T05:20:40;4.53;;;2.90;;
4078;SDS011;2054;47.858;11.156;2023-07-29T05:23:07;4.13;;;3.10;;
4078;SDS011;2054;47.858;11.156;2023-07-29T05:25:35;4.72;;;3.00;;
4078;SDS011;2054;47.858;11.156;2023-07-29T05:28:02;3.47;;;2.70;;
4078;SDS011;2054;47.858;11.156;2023-07-29T05:30:30;4.60;;;3.20;;
4078;SDS011;2054;47.858;11.156;2023-07-29T05:32:58;5.32;;;2.83;;
4078;SDS011;2054;47.858;11.156;2023-07-29T05:35:26;5.10;;;2.60;;
4078;SDS011;2054;47.858;11.156;2023-07-29T05:37:55;3.97;;;3.05;;
4078;SDS011;2054;47.858;11.156;2023-07-29T05:40:22;3.90;;;2.60;;
4078;SDS011;2054;47.858;11.156;2023-07-29T05:42:49;4.40;;;2.70;;
4078;SDS011;2054;47.858;11.156;2023-07-29T05:45:17;4.78;;;3.08;;
4078;SDS011;2054;47.858;11.156;2023-07-29T05:47:44;4.00;;;2.83;;
4078;SDS011;2054;47.858;11.156;2023-07-29T05:50:12;3.22;;;2.58;;
4078;SDS011;2054;47.858;11.156;2023-07-29T05:52:40;3.42;;;2.45;;
4078;SDS011;2054;47.858;11.156;2023-07-29T05:55:10;2.60;;;2.25;;
4078;SDS011;2054;47.858;11.156;2023-07-29T05:57:37;3.25;;;2.83;;
4078;SDS011;2054;47.858;11.156;2023-07-29T06:00:05;3.92;;;2.72;;
4078;SDS011;2054;47.858;11.156;2023-07-29T06:02:36;5.82;;;2.72;;
4078;SDS011;2054;47.858;11.156;2023-07-29T06:05:04;4.25;;;2.78;;
4078;SDS011;2054;47.858;11.156;2023-07-29T06:07:32;4.70;;;2.70;;
4078;SDS011;2054;47.858;11.156;2023-07-29T06:10:00;7.25;;;2.50;;
4078;SDS011;2054;47.858;11.156;2023-07-29T06:12:29;5.47;;;3.30;;
4078;SDS011;2054;47.858;11.156;2023-07-29T06:14:56;3.10;;;2.80;;
4078;SDS011;2054;47.858;11.156;2023-07-29T06:17:24;3.13;;;2.58;;
4078;SDS011;2054;47.858;11.156;2023-07-29T06:19:51;3.30;;;2.70;;
4078;SDS011;2054;47.858;11.156;2023-07-29T06:22:19;3.90;;;3.13;;
4078;SDS011;2054;47.858;11.156;2023-07-29T06:24:47;3.50;;;3.20;;
4078;SDS011;2054;47.858;11.156;2023-07-29T06:27:15;3.65;;;2.83;;
4078;SDS011;2054;47.858;11.156;2023-07-29T06:29:44;3.10;;;2.80;;
4078;SDS011;2054;47.858;11.156;2023-07-29T06:32:11;5.05;;;2.97;;
4078;SDS011;2054;47.858;11.156;2023-07-29T06:34:39;3.30;;;2.88;;
4078;SDS011;2054;47.858;11.156;2023-07-29T06:37:07;4.88;;;2.88;;
4078;SDS011;2054;47.858;11.156;2023-07-29T06:39:35;4.22;;;2.90;;
4078;SDS011;2054;47.858;11.156;2023-07-29T06:42:03;4.20;;;3.20;;
4078;SDS011;2054;47.858;11.156;2023-07-29T06:44:30;3.83;;;3.20;;
4078;SDS011;2054;47.858;11.156;2023-07-29T06:46:59;4.53;;;3.60;;
4078;SDS011;2054;47.858;11.156;2023-07-29T06:49:26;4.68;;;3.70;;
4078;SDS011;2054;47.858;11.156;2023-07-29T06:51:53;3.92;;;3.20;;
4078;SDS011;2054;47.858;11.156;2023-07-29T06:54:23;4.22;;;3.10;;
4078;SDS011;2054;47.858;11.156;2023-07-29T06:56:51;4.95;;;3.20;;
4078;SDS011;2054;47.858;11.156;2023-07-29T06:59:19;3.80;;;2.85;;
4078;SDS011;2054;47.858;11.156;2023-07-29T07:01:46;3.72;;;3.03;;
4078;SDS011;2054;47.858;11.156;2023-07-29T07:04:15;4.18;;;3.00;;
4078;SDS011;2054;47.858;11.156;2023-07-29T07:06:42;4.05;;;2.85;;
4078;SDS011;2054;47.858;11.156;2023-07-29T07:09:09;3.97;;;2.88;;
4078;SDS011;2054;47.858;11.156;2023-07-29T07:11:36;3.00;;;2.70;;
4078;SDS011;2054;47.858;11.156;2023-07-29T07:14:05;3.92;;;2.63;;
4078;SDS011;2054;47.858;11.156;2023-07-29T07:16:32;3.22;;;2.70;;
4078;SDS011;2054;47.858;11.156;2023-07-29T07:19:01;3.05;;;2.70;;
4078;SDS011;2054;47.858;11.156;2023-07-29T07:21:30;4.25;;;2.90;;
4078;SDS011;2054;47.858;11.156;2023-07-29T07:23:58;3.80;;;3.00;;
4078;SDS011;2054;47.858;11.156;2023-07-29T07:26:25;3.25;;;2.58;;
4078;SDS011;2054;47.858;11.156;2023-07-29T07:28:53;4.03;;;2.92;;
4078;SDS011;2054;47.858;11.156;2023-07-29T07:31:20;3.80;;;2.78;;
4078;SDS011;2054;47.858;11.156;2023-07-29T07:33:48;4.93;;;3.03;;
4078;SDS011;2054;47.858;11.156;2023-07-29T07:36:15;3.92;;;2.75;;
4078;SDS011;2054;47.858;11.156;2023-07-29T07:38:44;3.30;;;3.00;;
4078;SDS011;2054;47.858;11.156;2023-07-29T07:41:11;3.85;;;2.78;;
4078;SDS011;2054;47.858;11.156;2023-07-29T07:43:39;3.45;;;3.15;;
4078;SDS011;2054;47.858;11.156;2023-07-29T07:46:06;4.57;;;3.00;;
4078;SDS011;2054;47.858;11.156;2023-07-29T07:48:33;3.47;;;3.13;;
4078;SDS011;2054;47.858;11.156;2023-07-29T07:51:04;2.80;;;2.50;;
4078;SDS011;2054;47.858;11.156;2023-07-29T07:53:36;4.30;;;3.15;;
4078;SDS011;2054;47.858;11.156;2023-07-29T07:56:05;3.83;;;3.20;;
4078;SDS011;2054;47.858;11.156;2023-07-29T07:58:32;4.70;;;3.72;;
4078;SDS011;2054;47.858;11.156;2023-07-29T08:01:03;3.95;;;3.05;;
4078;SDS011;2054;47.858;11.156;2023-07-29T08:03:30;3.70;;;3.15;;
4078;SDS011;2054;47.858;11.156;2023-07-29T08:05:58;8.40;;;3.25;;
4078;SDS011;2054;47.858;11.156;2023-07-29T08:08:25;4.50;;;3.10;;
4078;SDS011;2054;47.858;11.156;2023-07-29T08:10:53;3.80;;;3.33;;
4078;SDS011;2054;47.858;11.156;2023-07-29T08:13:22;4.53;;;3.25;;
4078;SDS011;2054;47.858;11.156;2023-07-29T08:15:49;5.90;;;3.10;;
4078;SDS011;2054;47.858;11.156;2023-07-29T08:18:17;4.72;;;3.10;;
4078;SDS011;2054;47.858;11.156;2023-07-29T08:20:51;4.22;;;3.47;;
4078;SDS011;2054;47.858;11.156;2023-07-29T08:23:19;3.40;;;3.10;;
4078;SDS011;2054;47.858;11.156;2023-07-29T08:25:50;3.28;;;2.95;;
4078;SDS011;2054;47.858;11.156;2023-07-29T08:28:17;4.30;;;3.28;;
4078;SDS011;2054;47.858;11.156;2023-07-29T08:30:46;3.75;;;3.28;;
4078;SDS011;2054;47.858;11.156;2023-07-29T08:33:13;3.55;;;3.25;;
4078;SDS011;2054;47.858;11.156;2023-07-29T08:35:41;6.18;;;3.55;;
4078;SDS011;2054;47.858;11.156;2023-07-29T08:38:08;3.00;;;2.70;;
4078;SDS011;2054;47.858;11.156;2023-07-29T08:40:36;4.00;;;3.30;;
4078;SDS011;2054;47.858;11.156;2023-07-29T08:43:04;3.97;;;2.90;;
4078;SDS011;2054;47.858;11.156;2023-07-29T08:45:32;5.95;;;3.30;;
4078;SDS011;2054;47.858;11.156;2023-07-29T08:48:02;3.58;;;2.95;;
4078;SDS011;2054;47.858;11.156;2023-07-29T08:50:30;3.85;;;3.35;;
4078;SDS011;2054;47.858;11.156;2023-07-29T08:52:59;3.50;;;3.20;;
4078;SDS011;2054;47.858;11.156;2023-07-29T08:55:27;3.95;;;2.92;;
4078;SDS011;2054;47.858;11.156;2023-07-29T08:57:54;4.28;;;3.05;;
4078;SDS011;2054;47.858;11.156;2023-07-29T09:00:21;3.20;;;2.85;;
4078;SDS011;2054;47.858;11.156;2023-07-29T09:02:49;3.65;;;2.90;;
4078;SDS011;2054;47.858;11.156;2023-07-29T09:05:18;3.67;;;3.20;;
4078;SDS011;2054;47.858;11.156;2023-07-29T09:07:45;4.38;;;3.30;;
4078;SDS011;2054;47.858;11.156;2023-07-29T09:10:13;4.85;;;3.60;;
4078;SDS011;2054;47.858;11.156;2023-07-29T09:12:40;3.47;;;3.08;;
4078;SDS011;2054;47.858;11.156;2023-07-29T09:15:08;4.43;;;3.15;;
4078;SDS011;2054;47.858;11.156;2023-07-29T09:17:36;4.15;;;3.30;;
4078;SDS011;2054;47.858;11.156;2023-07-29T09:20:03;3.95;;;3.20;;
4078;SDS011;2054;47.858;11.156;2023-07-29T09:22:32;5.03;;;3.47;;
4078;SDS011;2054;47.858;11.156;2023-07-29T09:24:59;3.72;;;3.30;;
4078;SDS011;2054;47.858;11.156;2023-07-29T09:27:26;4.03;;;3.40;;
4078;SDS011;2054;47.858;11.156;2023-07-29T09:29:56;3.35;;;2.95;;
4078;SDS011;2054;47.858;11.156;2023-07-29T09:32:24;4.38;;;3.65;;
4078;SDS011;2054;47.858;11.156;2023-07-29T09:34:52;3.70;;;3.30;;
4078;SDS011;2054;47.858;11.156;2023-07-29T09:37:21;10.02;;;4.90;;
4078;SDS011;2054;47.858;11.156;2023-07-29T09:39:52;4.90;;;3.75;;
4078;SDS011;2054;47.858;11.156;2023-07-29T09:42:20;3.30;;;3.00;;
4078;SDS011;2054;47.858;11.156;2023-07-29T09:44:49;3.88;;;3.30;;
4078;SDS011;2054;47.858;11.156;2023-07-29T09:47:19;5.00;;;3.90;;
4078;SDS011;2054;47.858;11.156;2023-07-29T09:49:51;4.43;;;3.45;;
4078;SDS011;2054;47.858;11.156;2023-07-29T09:52:19;4.30;;;3.88;;
4078;SDS011;2054;47.858;11.156;2023-07-29T09:54:47;5.22;;;3.80;;
4078;SDS011;2054;47.858;11.156;2023-07-29T09:57:17;4.90;;;3.50;;
4078;SDS011;2054;47.858;11.156;2023-07-29T09:59:53;4.47;;;3.60;;
4078;SDS011;2054;47.858;11.156;2023-07-29T10:02:20;4.55;;;3.67;;
4078;SDS011;2054;47.858;11.156;2023-07-29T10:04:48;4.00;;;3.60;;
4078;SDS011;2054;47.858;11.156;2023-07-29T10:07:16;4.28;;;3.78;;
4078;SDS011;2054;47.858;11.156;2023-07-29T10:09:44;3.80;;;3.50;;
4078;SDS011;2054;47.858;11.156;2023-07-29T10:12:25;9.00;;;3.95;;
4078;SDS011;2054;47.858;11.156;2023-07-29T10:14:52;4.25;;;3.47;;
4078;SDS011;2054;47.858;11.156;2023-07-29T10:17:20;6.32;;;4.22;;
4078;SDS011;2054;47.858;11.156;2023-07-29T10:19:47;4.00;;;3.30;;
4078;SDS011;2054;47.858;11.156;2023-07-29T10:22:15;3.80;;;3.30;;
4078;SDS011;2054;47.858;11.156;2023-07-29T10:24:44;4.38;;;3.35;;
4078;SDS011;2054;47.858;11.156;2023-07-29T10:27:13;5.38;;;3.47;;
4078;SDS011;2054;47.858;11.156;2023-07-29T10:29:43;7.32;;;4.55;;
4078;SDS011;2054;47.858;11.156;2023-07-29T10:32:11;4.07;;;3.50;;
4078;SDS011;2054;47.858;11.156;2023-07-29T10:34:38;3.92;;;3.53;;
4078;SDS011;2054;47.858;11.156;2023-07-29T10:37:05;3.78;;;3.47;;
4078;SDS011;2054;47.858;11.156;2023-07-29T10:39:37;4.47;;;3.22;;
4078;SDS011;2054;47.858;11.156;2023-07-29T10:42:06;3.13;;;2.90;;
4078;SDS011;2054;47.858;11.156;2023-07-29T10:44:47;3.40;;;3.10;;
4078;SDS011;2054;47.858;11.156;2023-07-29T10:47:16;4.80;;;3.22;;
4078;SDS011;2054;47.858;11.156;2023-07-29T10:49:43;4.32;;;3.50;;
4078;SDS011;2054;47.858;11.156;2023-07-29T10:52:12;3.75;;;3.28;;
4078;SDS011;2054;47.858;11.156;2023-07-29T10:54:44;3.70;;;3.30;;
4078;SDS011;2054;47.858;11.156;2023-07-29T10:57:15;3.63;;;3.30;;
4078;SDS011;2054;47.858;11.156;2023-07-29T10:59:53;4.53;;;3.08;;
4078;SDS011;2054;47.858;11.156;2023-07-29T11:02:21;4.13;;;3.53;;
4078;SDS011;2054;47.858;11.156;2023-07-29T11:04:49;3.30;;;2.92;;
4078;SDS011;2054;47.858;11.156;2023-07-29T11:07:20;3.25;;;2.95;;
4078;SDS011;2054;47.858;11.156;2023-07-29T11:09:53;3.30;;;3.00;;
4078;SDS011;2054;47.858;11.156;2023-07-29T11:12:34;3.20;;;2.90;;
4078;SDS011;2054;47.858;11.156;2023-07-29T11:15:04;3.85;;;3.50;;
4078;SDS011;2054;47.858;11.156;2023-07-29T11:17:32;3.30;;;3.00;;
4078;SDS011;2054;47.858;11.156;2023-07-29T11:20:00;7.20;;;3.05;;
4078;SDS011;2054;47.858;11.156;2023-07-29T11:22:29;3.45;;;2.70;;
4078;SDS011;2054;47.858;11.156;2023-07-29T11:24:56;5.38;;;3.25;;
4078;SDS011;2054;47.858;11.156;2023-07-29T11:27:23;3.40;;;3.10;;
4078;SDS011;2054;47.858;11.156;2023-07-29T11:29:56;2.90;;;2.70;;
4078;SDS011;2054;47.858;11.156;2023-07-29T11:32:25;4.22;;;3.08;;
4078;SDS011;2054;47.858;11.156;2023-07-29T11:34:52;3.20;;;2.72;;
4078;SDS011;2054;47.858;11.156;2023-07-29T11:37:20;4.07;;;2.70;;
4078;SDS011;2054;47.858;11.156;2023-07-29T11:39:47;3.42;;;2.97;;
4078;SDS011;2054;47.858;11.156;2023-07-29T11:42:16;4.28;;;2.78;;
4078;SDS011;2054;47.858;11.156;2023-07-29T11:44:44;3.70;;;2.50;;
4078;SDS011;2054;47.858;11.156;2023-07-29T11:47:11;5.18;;;2.80;;
4078;SDS011;2054;47.858;11.156;2023-07-29T11:49:41;3.05;;;2.80;;
4078;SDS011;2054;47.858;11.156;2023-07-29T11:52:09;3.33;;;2.78;;
4078;SDS011;2054;47.858;11.156;2023-07-29T11:54:37;3.90;;;2.78;;
4078;SDS011;2054;47.858;11.156;2023-07-29T11:57:06;3.47;;;3.15;;
4078;SDS011;2054;47.858;11.156;2023-07-29T11:59:34;4.20;;;2.83;;
4078;SDS011;2054;47.858;11.156;2023-07-29T12:02:02;2.92;;;2.70;;
4078;SDS011;2054;47.858;11.156;2023-07-29T12:04:32;3.30;;;3.00;;
4078;SDS011;2054;47.858;11.156;2023-07-29T12:07:02;3.10;;;2.80;;
4078;SDS011;2054;47.858;11.156;2023-07-29T12:09:30;5.10;;;2.65;;
4078;SDS011;2054;47.858;11.156;2023-07-29T12:11:58;3.30;;;2.80;;
4078;SDS011;2054;47.858;11.156;2023-07-29T12:14:25;3.28;;;2.97;;
4078;SDS011;2054;47.858;11.156;2023-07-29T12:16:53;3.72;;;2.92;;
4078;SDS011;2054;47.858;11.156;2023-07-29T12:19:20;5.32;;;3.00;;
4078;SDS011;2054;47.858;11.156;2023-07-29T12:21:50;3.58;;;3.10;;
4078;SDS011;2054;47.858;11.156;2023-07-29T12:24:19;3.92;;;2.95;;
4078;SDS011;2054;47.858;11.156;2023-07-29T12:26:46;3.80;;;2.85;;
4078;SDS011;2054;47.858;11.156;2023-07-29T12:29:14;3.67;;;3.33;;
4078;SDS011;2054;47.858;11.156;2023-07-29T12:31:42;3.35;;;3.05;;
4078;SDS011;2054;47.858;11.156;2023-07-29T12:34:09;3.63;;;3.33;;
4078;SDS011;2054;47.858;11.156;2023-07-29T12:36:43;3.35;;;3.05;;
4078;SDS011;2054;47.858;11.156;2023-07-29T12:41:57;3.65;;;3.10;;
4078;SDS011;2054;47.858;11.156;2023-07-29T12:44:25;4.80;;;3.20;;
4078;SDS011;2054;47.858;11.156;2023-07-29T12:46:53;3.28;;;2.95;;
4078;SDS011;2054;47.858;11.156;2023-07-29T12:49:24;3.75;;;3.35;;
4078;SDS011;2054;47.858;11.156;2023-07-29T12:51:53;3.70;;;3.30;;
4078;SDS011;2054;47.858;11.156;2023-07-29T12:54:20;3.70;;;3.03;;
4078;SDS011;2054;47.858;11.156;2023-07-29T12:56:48;4.78;;;3.63;;
4078;SDS011;2054;47.858;11.156;2023-07-29T12:59:16;4.15;;;3.35;;
4078;SDS011;2054;47.858;11.156;2023-07-29T13:01:43;3.85;;;3.47;;
4078;SDS011;2054;47.858;11.156;2023-07-29T13:04:11;6.55;;;3.40;;
4078;SDS011;2054;47.858;11.156;2023-07-29T13:06:38;3.92;;;3.55;;
4078;SDS011;2054;47.858;11.156;2023-07-29T13:09:09;4.78;;;3.30;;
4078;SDS011;2054;47.858;11.156;2023-07-29T13:11:36;3.50;;;3.20;;
4078;SDS011;2054;47.858;11.156;2023-07-29T13:14:03;4.68;;;3.53;;
4078;SDS011;2054;47.858;11.156;2023-07-29T13:16:32;3.33;;;3.03;;
4078;SDS011;2054;47.858;11.156;2023-07-29T13:19:00;3.58;;;3.25;;
4078;SDS011;2054;47.858;11.156;2023-07-29T13:21:27;4.53;;;3.38;;
4078;SDS011;2054;47.858;11.156;2023-07-29T13:23:55;3.08;;;2.83;;
4078;SDS011;2054;47.858;11.156;2023-07-29T13:26:22;3.50;;;3.20;;
4078;SDS011;2054;47.858;11.156;2023-07-29T13:28:49;3.55;;;3.10;;
4078;SDS011;2054;47.858;11.156;2023-07-29T13:31:17;3.63;;;3.15;;
4078;SDS011;2054;47.858;11.156;2023-07-29T13:33:46;4.55;;;3.42;;
4078;SDS011;2054;47.858;11.156;2023-07-29T13:36:13;3.72;;;3.40;;
4078;SDS011;2054;47.858;11.156;2023-07-29T13:38:41;5.10;;;3.22;;
4078;SDS011;2054;47.858;11.156;2023-07-29T13:41:08;3.95;;;3.35;;
4078;SDS011;2054;47.858;11.156;2023-07-29T13:43:35;4.60;;;3.25;;
4078;SDS011;2054;47.858;11.156;2023-07-29T13:46:02;6.68;;;3.50;;
4078;SDS011;2054;47.858;11.156;2023-07-29T13:48:30;3.53;;;3.13;;
4078;SDS011;2054;47.858;11.156;2023-07-29T13:50:59;4.15;;;3.22;;
4078;SDS011;2054;47.858;11.156;2023-07-29T13:53:26;3.35;;;3.00;;
4078;SDS011;2054;47.858;11.156;2023-07-29T13:55:54;3.42;;;3.13;;
4078;SDS011;2054;47.858;11.156;2023-07-29T13:58:21;4.45;;;3.30;;
4078;SDS011;2054;47.858;11.156;2023-07-29T14:00:48;4.90;;;3.40;;
4078;SDS011;2054;47.858;11.156;2023-07-29T14:03:15;3.35;;;2.97;;
4078;SDS011;2054;47.858;11.156;2023-07-29T14:05:43;4.70;;;2.30;;
4078;SDS011;2054;47.858;11.156;2023-07-29T14:08:12;3.38;;;2.30;;
4078;SDS011;2054;47.858;11.156;2023-07-29T14:10:39;3.13;;;2.20;;
4078;SDS011;2054;47.858;11.156;2023-07-29T14:13:06;2.70;;;2.00;;
4078;SDS011;2054;47.858;11.156;2023-07-29T14:15:34;2.47;;;2.08;;
4078;SDS011;2054;47.858;11.156;2023-07-29T14:18:04;2.30;;;2.10;;
4078;SDS011;2054;47.858;11.156;2023-07-29T14:20:32;3.08;;;1.88;;
4078;SDS011;2054;47.858;11.156;2023-07-29T14:23:02;2.28;;;1.90;;
4078;SDS011;2054;47.858;11.156;2023-07-29T14:25:30;2.42;;;2.13;;
4078;SDS011;2054;47.858;11.156;2023-07-29T14:27:58;3.30;;;2.63;;
4078;SDS011;2054;47.858;11.156;2023-07-29T14:30:25;2.80;;;2.15;;
4078;SDS011;2054;47.858;11.156;2023-07-29T14:32:53;2.15;;;1.92;;
4078;SDS011;2054;47.858;11.156;2023-07-29T14:35:20;2.53;;;2.05;;
4078;SDS011;2054;47.858;11.156;2023-07-29T14:37:47;2.40;;;2.13;;
4078;SDS011;2054;47.858;11.156;2023-07-29T14:40:14;2.72;;;1.98;;
4078;SDS011;2054;47.858;11.156;2023-07-29T14:42:43;3.33;;;2.50;;
4078;SDS011;2054;47.858;11.156;2023-07-29T14:45:10;3.53;;;2.20;;
4078;SDS011;2054;47.858;11.156;2023-07-29T14:47:38;2.10;;;1.95;;
4078;SDS011;2054;47.858;11.156;2023-07-29T14:50:05;2.88;;;2.20;;
4078;SDS011;2054;47.858;11.156;2023-07-29T14:52:32;2.78;;;2.30;;
4078;SDS011;2054;47.858;11.156;2023-07-29T14:55:00;2.50;;;2.30;;
4078;SDS011;2054;47.858;11.156;2023-07-29T14:57:27;2.45;;;2.25;;
4078;SDS011;2054;47.858;11.156;2023-07-29T14:59:56;5.15;;;3.15;;
4078;SDS011;2054;47.858;11.156;2023-07-29T15:02:23;2.33;;;2.13;;
4078;SDS011;2054;47.858;11.156;2023-07-29T15:04:50;2.70;;;2.50;;
4078;SDS011;2054;47.858;11.156;2023-07-29T15:07:18;5.03;;;2.50;;
4078;SDS011;2054;47.858;11.156;2023-07-29T15:09:45;3.42;;;2.30;;
4078;SDS011;2054;47.858;11.156;2023-07-29T15:12:12;3.17;;;2.88;;
4078;SDS011;2054;47.858;11.156;2023-07-29T15:14:40;2.70;;;2.50;;
4078;SDS011;2054;47.858;11.156;2023-07-29T15:17:09;2.92;;;2.40;;
4078;SDS011;2054;47.858;11.156;2023-07-29T15:19:36;2.25;;;2.05;;
4078;SDS011;2054;47.858;11.156;2023-07-29T15:22:03;2.67;;;2.20;;
4078;SDS011;2054;47.858;11.156;2023-07-29T15:24:30;2.80;;;2.40;;
4078;SDS011;2054;47.858;11.156;2023-07-29T15:26:58;2.53;;;2.33;;
4078;SDS011;2054;47.858;11.156;2023-07-29T15:29:25;4.25;;;3.17;;
4078;SDS011;2054;47.858;11.156;2023-07-29T15:31:53;3.08;;;2.53;;
4078;SDS011;2054;47.858;11.156;2023-07-29T15:34:22;3.25;;;2.95;;
4078;SDS011;2054;47.858;11.156;2023-07-29T15:36:50;3.47;;;3.03;;
4078;SDS011;2054;47.858;11.156;2023-07-29T15:39:17;3.42;;;2.55;;
4078;SDS011;2054;47.858;11.156;2023-07-29T15:41:46;3.42;;;2.30;;
4078;SDS011;2054;47.858;11.156;2023-07-29T15:44:13;2.80;;;2.30;;
4078;SDS011;2054;47.858;11.156;2023-07-29T15:46:41;2.40;;;2.20;;
4078;SDS011;2054;47.858;11.156;2023-07-29T15:49:09;2.90;;;2.60;;
4078;SDS011;2054;47.858;11.156;2023-07-29T15:51:37;2.85;;;2.53;;
4078;SDS011;2054;47.858;11.156;2023-07-29T15:54:05;2.13;;;1.95;;
4078;SDS011;2054;47.858;11.156;2023-07-29T15:56:32;3.40;;;2.00;;
4078;SDS011;2054;47.858;11.156;2023-07-29T15:59:01;2.25;;;2.05;;
4078;SDS011;2054;47.858;11.156;2023-07-29T16:01:28;4.40;;;2.08;;
4078;SDS011;2054;47.858;11.156;2023-07-29T16:03:55;2.63;;;1.75;;
4078;SDS011;2054;47.858;11.156;2023-07-29T16:08:52;2.67;;;2.42;;
4078;SDS011;2054;47.858;11.156;2023-07-29T16:11:19;2.28;;;1.70;;
4078;SDS011;2054;47.858;11.156;2023-07-29T16:13:46;2.05;;;1.70;;
4078;SDS011;2054;47.858;11.156;2023-07-29T16:16:14;2.53;;;1.80;;
4078;SDS011;2054;47.858;11.156;2023-07-29T16:18:41;1.90;;;1.70;;
4078;SDS011;2054;47.858;11.156;2023-07-29T16:21:08;1.40;;;1.30;;
4078;SDS011;2054;47.858;11.156;2023-07-29T16:23:36;1.90;;;1.65;;
4078;SDS011;2054;47.858;11.156;2023-07-29T16:26:05;1.50;;;1.40;;
4078;SDS011;2054;47.858;11.156;2023-07-29T16:28:32;1.60;;;1.50;;
4078;SDS011;2054;47.858;11.156;2023-07-29T16:30:59;1.80;;;1.60;;
4078;SDS011;2054;47.858;11.156;2023-07-29T16:33:26;1.50;;;1.40;;
4078;SDS011;2054;47.858;11.156;2023-07-29T16:35:54;1.80;;;1.60;;
4078;SDS011;2054;47.858;11.156;2023-07-29T16:38:21;1.63;;;1.52;;
4078;SDS011;2054;47.858;11.156;2023-07-29T16:40:48;1.80;;;1.45;;
4078;SDS011;2054;47.858;11.156;2023-07-29T16:43:17;1.60;;;1.50;;
4078;SDS011;2054;47.858;11.156;2023-07-29T16:45:44;1.63;;;1.52;;
4078;SDS011;2054;47.858;11.156;2023-07-29T16:48:12;1.63;;;1.52;;
4078;SDS011;2054;47.858;11.156;2023-07-29T16:50:39;1.55;;;1.27;;
4078;SDS011;2054;47.858;11.156;2023-07-29T16:53:06;1.30;;;1.20;;
4078;SDS011;2054;47.858;11.156;2023-07-29T16:55:33;1.70;;;1.60;;
4078;SDS011;2054;47.858;11.156;2023-07-29T16:58:01;1.65;;;1.55;;
4078;SDS011;2054;47.858;11.156;2023-07-29T17:00:29;1.40;;;1.20;;
4078;SDS011;2054;47.858;11.156;2023-07-29T17:02:56;1.38;;;1.25;;
4078;SDS011;2054;47.858;11.156;2023-07-29T17:05:24;2.35;;;1.20;;
4078;SDS011;2054;47.858;11.156;2023-07-29T17:07:51;1.33;;;1.23;;
4078;SDS011;2054;47.858;11.156;2023-07-29T17:10:18;1.20;;;1.10;;
4078;SDS011;2054;47.858;11.156;2023-07-29T17:12:46;1.50;;;1.13;;
4078;SDS011;2054;47.858;11.156;2023-07-29T17:15:13;1.85;;;1.50;;
4078;SDS011;2054;47.858;11.156;2023-07-29T17:17:42;1.20;;;1.08;;
4078;SDS011;2054;47.858;11.156;2023-07-29T17:20:09;2.13;;;1.70;;
4078;SDS011;2054;47.858;11.156;2023-07-29T17:22:36;1.30;;;1.20;;
4078;SDS011;2054;47.858;11.156;2023-07-29T17:25:05;0.90;;;0.90;;
4078;SDS011;2054;47.858;11.156;2023-07-29T17:27:32;3.08;;;1.38;;
4078;SDS011;2054;47.858;11.156;2023-07-29T17:30:05;1.30;;;1.20;;
4078;SDS011;2054;47.858;11.156;2023-07-29T17:32:33;1.05;;;1.02;;
4078;SDS011;2054;47.858;11.156;2023-07-29T17:35:02;1.40;;;1.30;;
4078;SDS011;2054;47.858;11.156;2023-07-29T17:37:29;2.05;;;1.30;;
4078;SDS011;2054;47.858;11.156;2023-07-29T17:39:56;2.13;;;1.50;;
4078;SDS011;2054;47.858;11.156;2023-07-29T17:42:24;1.30;;;1.20;;
4078;SDS011;2054;47.858;11.156;2023-07-29T17:44:51;2.13;;;1.48;;
4078;SDS011;2054;47.858;11.156;2023-07-29T17:47:18;1.73;;;1.60;;
4078;SDS011;2054;47.858;11.156;2023-07-29T17:49:46;2.08;;;1.75;;
4078;SDS011;2054;47.858;11.156;2023-07-29T17:52:14;2.88;;;1.60;;
4078;SDS011;2054;47.858;11.156;2023-07-29T17:54:42;1.90;;;1.58;;